Time;durP1;ratioP1;P1;durP2;ratioP2;P2;SDS_P1;SDS_P2;PMS_P1;PMS_P2;Temp;Humidity;BMP_temperature;BMP_pressure;BME280_temperature;BME280_humidity;BME280_pressure;Samples;Min_cycle;Max_cycle;Signal;HPM_P1;HPM_P2
2022/05/02 00:02:13;;;;;;;;;;;;;;;9.72;46.72;99622.44;5055173;28;20134;-77
2022/05/02 00:04:38;;;;;;;6.68;2.80;;;;;;;9.62;46.79;99604.31;5053619;28;19966;-77
2022/05/02 00:07:04;;;;;;;;;;;;;;;9.80;46.81;99618.94;5041465;28;20079;-76
2022/05/02 00:09:29;;;;;;;4.63;2.88;;;;;;;9.76;46.52;99608.59;5055308;28;20082;-77
2022/05/02 00:11:55;;;;;;;;;;;;;;;9.79;47.05;99613.78;5053236;28;20041;-78
2022/05/02 00:14:21;;;;;;;5.93;2.95;;;;;;;9.73;46.40;99606.03;5043978;28;20288;-77
2022/05/02 00:16:46;;;;;;;6.30;2.90;;;;;;;9.74;46.56;99610.34;5055429;28;20040;-76
2022/05/02 00:19:12;;;;;;;4.30;3.00;;;;;;;9.74;46.57;99602.56;5054852;28;20377;-76
2022/05/02 00:21:38;;;;;;;;;;;;;;;9.76;47.08;99609.47;5037904;28;20048;-77
2022/05/02 00:24:04;;;;;;;5.22;2.65;;;;;;;9.78;46.33;99604.28;5041419;28;19912;-78
2022/05/02 00:26:30;;;;;;;;;;;;;;;9.82;46.55;99606.00;5037889;28;20518;-77
2022/05/02 00:28:55;;;;;;;3.97;2.60;;;;;;;9.78;46.44;99612.91;5053846;28;19921;-77
2022/05/02 00:31:21;;;;;;;;;;;;;;;9.81;46.75;99612.06;5055294;28;20049;-77
2022/05/02 00:33:46;;;;;;;4.65;2.88;;;;;;;9.79;46.40;99603.41;5053542;28;19916;-77
2022/05/02 00:36:12;;;;;;;;;;;;;;;9.81;46.31;99609.47;5022903;28;20043;-77
2022/05/02 00:38:38;;;;;;;5.63;3.00;;;;;;;9.71;46.31;99602.56;5054328;28;20069;-77
2022/05/02 00:41:03;;;;;;;6.30;3.20;;;;;;;9.74;46.23;99611.19;5052672;28;20118;-77
2022/05/02 00:43:29;;;;;;;4.85;2.85;;;;;;;9.66;46.66;99603.44;5054252;28;20495;-77
2022/05/02 00:45:56;;;;;;;5.78;3.10;;;;;;;9.71;46.35;99605.16;5052907;28;20048;-76
2022/05/02 00:48:21;;;;;;;5.28;2.90;;;;;;;9.71;46.13;99602.56;5053796;28;20033;-76
2022/05/02 00:50:47;;;;;;;4.45;2.65;;;;;;;9.71;46.05;99605.16;5052683;28;20106;-76
2022/05/02 00:53:17;;;;;;;5.63;3.28;;;;;;;9.66;46.25;99602.56;5052605;28;20040;-77
2022/05/02 00:55:44;;;;;;;5.35;3.65;;;;;;;9.61;45.67;99605.16;5053189;28;20123;-76
2022/05/02 00:58:10;;;;;;;4.78;2.83;;;;;;;9.50;46.03;99598.28;5022747;28;20025;-76
2022/05/02 01:00:37;;;;;;;4.40;2.80;;;;;;;9.55;45.97;99600.00;5052754;28;20041;-78
2022/05/02 01:03:03;;;;;;;5.35;3.10;;;;;;;9.42;46.12;99591.38;5052369;28;20051;-76
2022/05/02 01:05:29;;;;;;;;;;;;;;;9.53;45.81;99600.84;5029777;28;20038;-77
2022/05/02 01:07:54;;;;;;;5.50;3.53;;;;;;;9.47;45.78;99596.53;5059810;28;19970;-77
2022/05/02 01:10:20;;;;;;;;;;;;;;;9.53;45.83;99593.09;5063413;28;20053;-76
2022/05/02 01:12:47;;;;;;;4.78;2.83;;;;;;;9.49;45.97;99597.44;5077736;28;19912;-76
2022/05/02 01:15:14;;;;;;;5.57;3.38;;;;;;;9.43;45.96;99585.31;5035651;28;20032;-76
2022/05/02 01:17:39;;;;;;;5.90;3.17;;;;;;;9.41;45.96;99586.19;5053393;28;20035;-77
2022/05/02 01:20:15;;;;;;;5.78;3.03;;;;;;;9.36;46.05;99588.78;5052330;28;20044;-77
2022/05/02 01:22:42;;;;;;;5.63;3.20;;;;;;;9.30;46.57;99575.88;5052278;28;20530;-76
2022/05/02 01:25:08;;;;;;;4.68;2.80;;;;;;;9.29;46.55;99575.84;5031816;28;20030;-75
2022/05/02 01:27:34;;;;;;;4.60;3.30;;;;;;;9.37;46.36;99584.47;5035538;28;20064;-77
2022/05/02 01:29:59;;;;;;;;;;;;;;;9.36;46.66;99585.34;5053715;28;20047;-77
2022/05/02 01:32:25;;;;;;;5.10;3.13;;;;;;;9.35;46.33;99586.22;5052059;28;19974;-76
2022/05/02 01:34:51;;;;;;;6.03;3.63;;;;;;;9.31;47.03;99585.34;5052009;28;20487;-75
2022/05/02 01:37:16;;;;;;;;;;;;;;;9.26;46.97;99586.22;5034008;28;20055;-76
2022/05/02 01:39:42;;;;;;;4.70;3.03;;;;;;;9.16;47.25;99585.31;5041540;28;19919;-76
2022/05/02 01:42:11;;;;;;;;;;;;;;;9.16;47.61;99581.03;5052444;28;20047;-76
2022/05/02 01:44:37;;;;;;;5.63;3.45;;;;;;;9.05;47.70;99582.75;5051791;28;19918;-76
2022/05/02 01:47:03;;;;;;;5.20;3.15;;;;;;;9.01;47.83;99588.78;5051779;28;20037;-77
2022/05/02 01:49:28;;;;;;;;;;;;;;;8.98;48.54;99581.03;5035900;28;20033;-76
2022/05/02 01:51:54;;;;;;;4.93;3.42;;;;;;;8.96;47.98;99582.75;5052192;28;19924;-75
2022/05/02 01:54:20;;;;;;;;;;;;;;;8.93;48.65;99587.91;5049599;28;20039;-76
2022/05/02 01:56:45;;;;;;;6.80;3.17;;;;;;;8.93;48.56;99593.06;5028998;28;19918;-77
2022/05/02 01:59:11;;;;;;;6.95;3.25;;;;;;;8.92;48.87;99588.75;5072834;28;20032;-76
2022/05/02 02:01:37;;;;;;;5.15;3.20;;;;;;;8.96;48.46;99594.81;5051643;28;20036;-76
2022/05/02 02:06:52;;;;;;;5.70;3.33;;;;;;;8.93;48.53;99576.69;5051517;28;19924;-76
2022/05/02 02:09:18;;;;;;;7.85;3.35;;;;;;;8.92;48.37;99588.75;5018840;28;20071;-76
2022/05/02 02:11:43;;;;;;;;;;;;;;;8.97;48.93;99589.63;5051999;28;20047;-75
2022/05/02 02:14:09;;;;;;;4.70;2.78;;;;;;;8.86;48.32;99586.19;5051325;28;20351;-77
2022/05/02 02:16:34;;;;;;;;;;;;;;;8.82;49.33;99580.13;5052994;28;20044;-76
2022/05/02 02:19:00;;;;;;;4.50;3.00;;;;;;;8.73;49.49;99577.53;5052512;28;20403;-77
2022/05/02 02:21:26;;;;;;;5.55;3.17;;;;;;;8.74;49.56;99583.56;5051404;28;20045;-76
2022/05/02 02:23:51;;;;;;;;;;;;;;;8.74;49.81;99587.00;5035285;28;20095;-76
2022/05/02 02:26:17;;;;;;;5.07;3.13;;;;;;;8.73;49.30;99587.00;5051377;28;19917;-77
2022/05/02 02:28:43;;;;;;;;;;;;;;;8.78;49.73;99593.06;5035663;28;20029;-76
2022/05/02 02:31:09;;;;;;;6.18;3.28;;;;;;;8.70;49.41;99579.25;5056916;28;20018;-76
2022/05/02 02:33:34;;;;;;;6.10;3.42;;;;;;;8.76;49.45;99589.63;5041871;28;20070;-76
2022/05/02 02:36:00;;;;;;;5.85;3.17;;;;;;;8.79;49.40;99592.19;5021601;28;20073;-77
2022/05/02 02:38:26;;;;;;;9.38;3.47;;;;;;;8.78;48.97;99587.88;5055185;28;20040;-76
2022/05/02 02:40:52;;;;;;;;;;;;;;;8.81;49.22;99593.06;5055564;28;20045;-76
2022/05/02 02:43:17;;;;;;;4.25;2.72;;;;;;;8.78;49.46;99593.91;5055039;28;19912;-76
2022/05/02 02:45:43;;;;;;;;;;;;;;;8.77;49.23;99597.38;5055510;28;20040;-76
2022/05/02 02:48:08;;;;;;;6.88;3.17;;;;;;;8.73;49.19;99594.78;5056134;28;20441;-77
2022/05/02 02:50:34;;;;;;;6.50;3.10;;;;;;;8.76;49.35;99597.38;5055147;28;20049;-75
2022/05/02 02:53:00;;;;;;;3.97;2.75;;;;;;;8.72;49.05;99596.50;5050677;28;20128;-75
2022/05/02 02:55:26;;;;;;;;;;;;;;;8.79;49.43;99598.22;5047903;28;20407;-76
2022/05/02 02:57:51;;;;;;;6.63;3.30;;;;;;;8.78;48.78;99595.63;5040649;28;19923;-76
2022/05/02 03:00:18;;;;;;;6.38;3.30;;;;;;;8.78;48.83;99591.31;5025738;28;20045;-77
2022/05/02 03:02:43;;;;;;;5.20;3.35;;;;;;;8.73;48.92;99589.59;5056289;28;20492;-77
2022/05/02 03:07:53;;;;;;;4.95;3.10;;;;;;;8.74;48.60;99593.91;5054700;28;20506;-75
2022/05/02 03:10:19;;;;;;;6.05;3.30;;;;;;;8.73;48.62;99594.78;5054618;28;20045;-76
2022/05/02 03:12:45;;;;;;;6.85;3.42;;;;;;;8.78;48.38;99596.50;5038087;28;20048;-78
2022/05/02 03:15:11;;;;;;;5.30;3.28;;;;;;;8.84;48.10;99598.22;5036235;28;20041;-77
2022/05/02 03:17:37;;;;;;;6.50;3.58;;;;;;;8.77;48.10;99578.41;5054874;28;20041;-76
2022/05/02 03:20:02;;;;;;;;;;;;;;;8.86;48.47;99602.56;5055052;28;20438;-76
2022/05/02 03:22:28;;;;;;;6.88;3.33;;;;;;;8.83;47.94;99594.78;5087689;28;19916;-77
2022/05/02 03:24:54;;;;;;;7.72;3.42;;;;;;;8.86;47.91;99592.22;5054387;28;20032;-76
2022/05/02 03:27:20;;;;;;;5.95;3.28;;;;;;;8.90;47.69;99598.25;5055488;28;20087;-77
2022/05/02 03:29:45;;;;;;;8.57;3.67;;;;;;;8.89;47.87;99602.56;5055934;28;20040;-76
2022/05/02 03:32:11;;;;;;;6.93;3.25;;;;;;;8.90;47.39;99603.44;5055100;28;20132;-78
2022/05/02 03:34:36;;;;;;;;;;;;;;;8.93;47.64;99603.41;5049897;28;20045;-77
2022/05/02 03:37:02;;;;;;;7.03;3.40;;;;;;;8.97;47.96;99610.31;5045035;28;19920;-77
2022/05/02 03:39:28;;;;;;;6.40;3.17;;;;;;;8.91;47.60;99597.38;5037011;28;20043;-76
2022/05/02 03:41:54;;;;;;;6.38;3.50;;;;;;;8.92;47.46;99606.88;5053831;28;20073;-76
2022/05/02 03:44:19;;;;;;;;;;;;;;;8.90;47.92;99611.19;5015953;28;20042;-77
2022/05/02 03:46:45;;;;;;;5.57;3.20;;;;;;;8.88;47.51;99607.72;5053953;28;19924;-77
2022/05/02 03:49:10;;;;;;;6.80;4.03;;;;;;;8.87;47.52;99608.59;5053543;28;20419;-77
2022/05/02 03:51:36;;;;;;;5.47;3.63;;;;;;;8.84;47.38;99599.13;5053752;28;20056;-76
2022/05/02 03:54:02;;;;;;;7.75;3.40;;;;;;;8.92;47.46;99609.47;5041309;28;20120;-76
2022/05/02 03:56:27;;;;;;;;;;;;;;;9.00;47.66;99609.47;5049130;28;20127;-77
2022/05/02 03:58:53;;;;;;;6.55;3.35;;;;;;;8.96;47.53;99608.59;5046659;28;20264;-76
2022/05/02 04:01:19;;;;;;;6.47;3.33;;;;;;;8.95;47.76;99612.06;5055610;28;20055;-76
2022/05/02 04:03:46;;;;;;;;;;;;;;;8.94;47.46;99609.47;5054168;28;20029;-75
2022/05/02 04:06:12;;;;;;;8.27;3.25;;;;;;;8.97;46.94;99610.31;5054887;28;20271;-78
2022/05/02 04:08:38;;;;;;;5.25;2.80;;;;;;;8.94;47.07;99620.69;5036718;28;20195;-76
2022/05/02 04:11:03;;;;;;;7.88;3.42;;;;;;;8.98;47.51;99614.66;5030847;28;20038;-76
2022/05/02 04:13:29;;;;;;;;;;;;;;;9.05;47.39;99618.97;5052828;28;20037;-76
2022/05/02 04:15:55;;;;;;;5.15;3.55;;;;;;;9.07;47.27;99626.72;5054527;28;20268;-76
2022/05/02 04:18:20;;;;;;;;;;;;;;;9.19;47.12;99621.56;5054095;28;20067;-77
2022/05/02 04:20:46;;;;;;;5.22;3.38;;;;;;;9.16;46.29;99613.78;5053659;28;20440;-78
2022/05/02 04:23:12;;;;;;;9.25;3.70;;;;;;;9.23;46.67;99609.50;5036855;28;20059;-77
2022/05/02 04:25:37;;;;;;;6.97;3.58;;;;;;;9.38;45.96;99612.09;5049017;28;20515;-77
2022/05/02 04:28:03;;;;;;;5.72;3.53;;;;;;;9.37;46.05;99606.03;5046515;28;20552;-77
2022/05/02 04:30:29;;;;;;;;;;;;;;;9.41;45.77;99612.09;5049753;28;20477;-77
2022/05/02 04:32:56;;;;;;;7.68;3.67;;;;;;;9.40;45.85;99611.22;5033308;28;19924;-77
2022/05/02 04:35:22;;;;;;;5.68;3.75;;;;;;;9.43;45.75;99615.53;5034317;28;20041;-77
2022/05/02 04:37:48;;;;;;;6.03;3.92;;;;;;;9.43;45.88;99603.44;5033505;28;20083;-76
2022/05/02 04:40:13;;;;;;;10.23;3.50;;;;;;;9.60;45.22;99606.03;5033581;28;20044;-78
2022/05/02 04:42:39;;;;;;;7.72;3.80;;;;;;;9.71;45.02;99600.81;5034258;28;20037;-75
2022/05/02 04:45:05;;;;;;;6.35;3.28;;;;;;;9.70;44.72;99609.47;5049523;28;20060;-77
2022/05/02 04:47:31;;;;;;;;;;;;;;;9.66;45.35;99611.19;5033256;28;20124;-76
2022/05/02 04:49:56;;;;;;;6.97;3.70;;;;;;;9.61;44.96;99599.13;5034126;28;20364;-77
2022/05/02 04:52:22;;;;;;;7.65;3.53;;;;;;;9.60;45.02;99611.22;5032029;28;20030;-77
2022/05/02 04:54:48;;;;;;;6.43;3.60;;;;;;;9.74;44.82;99599.97;5033169;28;20080;-78
2022/05/02 04:57:13;;;;;;;7.18;3.80;;;;;;;9.82;44.24;99603.41;5032688;28;20060;-77
2022/05/02 04:59:39;;;;;;;8.48;3.60;;;;;;;9.78;44.97;99602.56;5050255;28;20036;-79
2022/05/02 05:02:05;;;;;;;;;;;;;;;9.88;44.79;99604.25;5053185;28;20033;-76
2022/05/02 05:04:30;;;;;;;9.52;3.80;;;;;;;9.86;43.79;99599.97;5053655;28;19921;-77
2022/05/02 05:06:56;;;;;;;;;;;;;;;9.83;44.76;99606.00;5052888;28;20073;-78
2022/05/02 05:09:22;;;;;;;6.85;4.05;;;;;;;9.78;44.79;99604.28;5053504;28;19967;-78
2022/05/02 05:11:54;;;;;;;10.80;4.40;;;;;;;9.77;44.83;99607.75;5052205;28;20037;-76
2022/05/02 05:17:16;;;;;;;8.52;4.28;;;;;;;9.79;44.43;99606.88;5053821;28;20041;-77
2022/05/02 05:20:18;;;;;;;8.85;4.00;;;;;;;9.92;44.45;99593.03;5053569;28;20040;-74
2022/05/02 05:22:53;;;;;;;7.60;3.78;;;;;;;10.04;44.20;99594.72;5051370;28;20096;-77
2022/05/02 05:25:52;;;;;;;6.03;3.70;;;;;;;10.03;44.96;99597.31;5053029;28;20552;-77
2022/05/02 05:28:21;;;;;;;9.00;3.97;;;;;;;9.98;45.08;99599.06;5051590;28;20060;-77
2022/05/02 05:30:48;;;;;;;8.95;4.07;;;;;;;9.94;44.93;99590.41;5035709;28;20045;-77
2022/05/02 05:33:25;;;;;;;8.60;4.15;;;;;;;10.01;45.00;99596.47;5052235;28;20037;-77
2022/05/02 05:35:57;;;;;;;;;;;;;;;10.10;45.29;99594.69;5035611;28;20048;-78
2022/05/02 05:38:26;;;;;;;8.18;3.90;;;;;;;10.16;44.96;99593.81;5074470;28;19967;-77
2022/05/02 05:41:02;;;;;;;7.22;3.95;;;;;;;10.12;45.33;99574.81;5068699;28;20029;-77
2022/05/02 05:43:44;;;;;;;9.88;4.00;;;;;;;10.32;44.67;99590.34;5041053;28;20415;-77
2022/05/02 05:46:45;;;;;;;7.55;3.83;;;;;;;10.40;44.03;99592.88;5051770;28;20064;-78
2022/05/02 05:49:11;;;;;;;7.65;3.80;;;;;;;10.58;43.28;99594.53;5049830;28;20045;-78
2022/05/02 05:51:40;;;;;;;;;;;;;;;10.67;43.60;99592.78;5054258;28;20115;-79
2022/05/02 05:54:18;;;;;;;8.05;4.20;;;;;;;10.70;43.92;99594.47;5052189;28;20379;-75
2022/05/02 05:57:05;;;;;;;6.30;3.90;;;;;;;10.74;43.75;99588.38;5045640;28;20048;-77
2022/05/02 05:59:40;;;;;;;6.28;4.03;;;;;;;10.81;43.12;99599.59;5080228;28;20507;-78
2022/05/02 06:02:16;;;;;;;6.82;4.15;;;;;;;10.78;43.51;99597.03;5041241;28;20040;-78
2022/05/02 06:04:42;;;;;;;7.60;4.30;;;;;;;10.94;43.60;99601.22;5014854;28;20042;-77
2022/05/02 06:07:07;;;;;;;;;;;;;;;11.07;43.21;99602.00;5028719;28;20398;-78
2022/05/02 06:09:33;;;;;;;7.85;4.20;;;;;;;11.13;42.60;99599.38;5039966;28;19927;-78
2022/05/02 06:11:59;;;;;;;;;;;;;;;11.32;42.35;99603.56;5052515;28;20053;-79
2022/05/02 06:14:30;;;;;;;9.40;3.90;;;;;;;11.58;41.46;99605.91;5052599;28;19916;-77
2022/05/02 06:19:45;;;;;;;8.93;4.43;;;;;;;11.64;41.40;99598.09;5051800;28;20037;-78
2022/05/02 06:22:10;;;;;;;6.80;4.30;;;;;;;11.77;40.35;99592.75;5019283;28;20037;-77
2022/05/02 06:24:36;;;;;;;;;;;;;;;11.94;39.94;99596.06;5051804;28;20431;-76
2022/05/02 06:27:03;;;;;;;11.68;4.70;;;;;;;11.99;39.67;99590.81;5052607;28;19912;-78
2022/05/02 06:29:28;;;;;;;7.90;4.35;;;;;;;11.98;39.55;99587.38;5052719;28;20053;-77
2022/05/02 06:31:55;;;;;;;;;;;;;;;12.05;39.98;99595.94;5053415;28;20090;-77
2022/05/02 06:34:28;;;;;;;9.45;5.22;;;;;;;12.13;39.12;99587.19;5051280;28;20445;-77
2022/05/02 06:37:04;;;;;;;6.80;4.38;;;;;;;12.05;39.42;99594.25;5034741;28;20059;-78
2022/05/02 06:40:03;;;;;;;10.70;4.82;;;;;;;12.09;39.06;99593.31;5051602;28;20033;-78
2022/05/02 06:42:35;;;;;;;21.88;4.68;;;;;;;12.19;39.22;99589.75;5038228;28;20053;-77
2022/05/02 06:45:23;;;;;;;5.53;4.13;;;;;;;12.32;39.35;99590.44;5050565;28;20136;-78
2022/05/02 06:48:13;;;;;;;9.70;4.72;;;;;;;12.33;38.34;99586.97;5036811;28;20059;-77
2022/05/02 06:50:39;;;;;;;8.13;4.40;;;;;;;12.34;39.04;99582.63;5051994;28;20067;-79
2022/05/02 06:53:20;;;;;;;;;;;;;;;12.43;39.06;99582.50;5052206;28;20039;-77
2022/05/02 06:56:04;;;;;;;12.90;4.65;;;;;;;12.58;38.20;99577.09;5052775;28;20045;-76
2022/05/02 06:59:11;;;;;;;6.75;4.10;;;;;;;12.65;36.83;99578.75;5028916;28;20090;-77
2022/05/02 07:01:49;;;;;;;5.72;3.90;;;;;;;12.73;36.49;99576.00;5052731;28;20037;-78
2022/05/02 07:04:47;;;;;;;6.22;4.00;;;;;;;12.92;36.30;99576.59;5051541;28;20064;-78
2022/05/02 07:07:28;;;;;;;6.28;3.90;;;;;;;13.34;35.75;99571.66;5060665;28;20080;-76
2022/05/02 07:10:10;;;;;;;10.43;3.67;;;;;;;13.72;33.79;99571.81;5052270;28;20040;-78
2022/05/02 07:13:24;;;;;;;8.98;4.03;;;;;;;14.10;32.70;99564.16;5051744;28;20045;-77
2022/05/02 07:15:51;;;;;;;7.88;3.65;;;;;;;14.45;32.13;99574.72;5055821;28;20056;-77
2022/05/02 07:18:37;;;;;;;5.15;3.08;;;;;;;14.67;31.28;99567.34;5038797;28;20067;-78
2022/05/02 07:21:24;;;;;;;7.50;3.53;;;;;;;14.97;31.23;99567.50;5047252;28;20045;-79
2022/05/02 07:24:13;;;;;;;4.90;3.13;;;;;;;15.28;30.94;99566.78;5055079;28;20439;-77
2022/05/02 07:26:39;;;;;;;13.38;3.58;;;;;;;15.44;29.07;99565.47;5055496;28;20482;-77
2022/05/02 07:29:04;;;;;;;;;;;;;;;15.58;29.88;99559.91;5038721;28;20072;-78
2022/05/02 07:31:31;;;;;;;5.72;3.40;;;;;;;15.79;29.00;99563.75;5054719;28;20007;-77
2022/05/02 07:33:56;;;;;;;5.47;3.58;;;;;;;16.01;28.62;99554.41;5054824;28;20538;-77
2022/05/02 07:36:23;;;;;;;;;;;;;;;16.31;28.01;99552.69;5055175;28;20040;-77
2022/05/02 07:38:59;;;;;;;6.60;2.72;;;;;;;16.44;27.49;99554.03;5055821;28;19913;-77
2022/05/02 07:41:25;;;;;;;4.22;2.33;;;;;;;16.57;27.11;99548.44;5054775;28;20361;-79
2022/05/02 07:44:02;;;;;;;;;;;;;;;16.77;27.08;99561.81;5038886;28;20048;-76
2022/05/02 07:46:31;;;;;;;5.63;2.75;;;;;;;16.93;26.54;99555.19;5055460;28;19916;-77
2022/05/02 07:48:58;;;;;;;7.00;3.15;;;;;;;17.03;26.10;99556.59;5055848;28;20131;-77
2022/05/02 07:51:25;;;;;;;8.93;2.88;;;;;;;16.91;26.34;99557.00;5038592;28;20415;-77
2022/05/02 07:53:51;;;;;;;6.70;3.25;;;;;;;16.85;26.66;99551.09;5055151;28;20041;-78
2022/05/02 07:56:17;;;;;;;8.48;3.25;;;;;;;17.39;26.61;99550.22;5031021;28;20044;-79
2022/05/02 07:58:44;;;;;;;5.57;3.30;;;;;;;17.68;25.51;99555.28;5034799;28;20430;-79
2022/05/02 08:01:10;;;;;;;5.47;2.90;;;;;;;17.75;25.19;99542.88;5038069;28;20037;-80
2022/05/02 08:03:35;;;;;;;8.00;3.40;;;;;;;17.61;25.48;99531.97;5054666;28;20377;-81
2022/05/02 08:06:28;;;;;;;4.75;3.03;;;;;;;17.86;25.19;99537.22;5038811;28;20490;-76
2022/05/02 08:09:47;;;;;;;5.97;3.05;;;;;;;18.14;24.84;99539.69;5034686;28;20084;-77
2022/05/02 08:12:39;;;;;;;4.72;2.92;;;;;;;18.48;25.27;99528.81;5022335;28;20037;-79
2022/05/02 08:15:14;;;;;;;4.45;2.90;;;;;;;18.56;23.89;99524.13;5071549;28;20041;-77
2022/05/02 08:17:42;;;;;;;6.03;2.92;;;;;;;18.46;24.55;99522.72;5037917;28;20035;-77
2022/05/02 08:20:26;;;;;;;6.70;2.85;;;;;;;18.49;24.36;99515.59;5037591;28;20459;-77
2022/05/02 08:28:56;;;;;;;6.28;3.00;;;;;;;18.81;24.07;99510.03;5053770;28;20487;-77
2022/05/02 08:31:55;;;;;;;5.47;3.08;;;;;;;18.92;24.30;99500.81;5054781;28;20060;-78
2022/05/02 08:34:35;;;;;;;6.72;2.53;;;;;;;18.91;23.70;99521.88;5048879;28;20475;-78
2022/05/02 08:37:26;;;;;;;7.05;2.75;;;;;;;18.49;23.75;99506.88;5037785;28;20084;-78
2022/05/02 08:40:10;;;;;;;4.53;2.25;;;;;;;18.11;24.36;99496.06;5055494;28;20071;-80
2022/05/02 08:42:45;;;;;;;6.45;2.72;;;;;;;18.11;24.15;99496.06;5040189;28;20514;-76
2022/05/02 08:45:27;;;;;;;4.45;2.53;;;;;;;18.27;24.17;99499.81;5055986;28;20045;-78
2022/05/02 08:48:02;;;;;;;6.75;2.53;;;;;;;18.15;23.96;99494.19;5037078;28;20041;-78
2022/05/02 08:51:16;;;;;;;6.38;2.50;;;;;;;17.57;23.25;99499.75;5054075;28;20040;-80
2022/05/02 08:54:11;;;;;;;6.20;2.13;;;;;;;17.10;24.57;99491.75;5038704;28;20048;-78
2022/05/02 08:56:52;;;;;;;4.72;2.00;;;;;;;16.95;24.47;99474.78;5024621;28;20053;-79
2022/05/02 08:59:55;;;;;;;4.35;2.22;;;;;;;17.06;24.28;99492.75;5047683;28;20514;-81
2022/05/02 09:02:43;;;;;;;4.03;2.40;;;;;;;17.00;24.93;99477.25;5054758;28;20037;-76
2022/05/02 09:05:28;;;;;;;4.22;2.50;;;;;;;17.05;24.66;99485.81;5056505;28;20047;-79
2022/05/02 09:08:03;;;;;;;4.95;2.53;;;;;;;17.20;25.03;99481.81;5053877;28;20053;-79
2022/05/02 09:10:49;;;;;;;10.02;2.40;;;;;;;17.36;25.49;99477.72;5055835;28;20091;-77
2022/05/02 09:13:33;;;;;;;6.15;2.60;;;;;;;17.64;24.50;99472.41;5054966;28;20094;-78
2022/05/02 09:16:05;;;;;;;5.97;3.00;;;;;;;17.68;24.66;99481.00;5052447;28;20040;-78
2022/05/02 09:18:43;;;;;;;4.28;2.47;;;;;;;18.12;24.37;99463.66;5053330;28;20077;-78
2022/05/02 09:21:28;;;;;;;5.25;2.78;;;;;;;18.79;23.38;99463.66;5054835;28;20041;-77
2022/05/02 09:24:13;;;;;;;5.25;2.95;;;;;;;19.26;22.56;99473.09;5052759;28;20037;-77
2022/05/02 09:27:00;;;;;;;6.97;3.03;;;;;;;19.12;23.31;99468.44;5053206;28;20437;-77
2022/05/02 09:30:04;;;;;;;5.43;2.95;;;;;;;18.74;23.00;99475.28;5052537;28;20073;-78
2022/05/02 09:32:30;;;;;;;5.47;2.78;;;;;;;18.30;23.36;99456.84;5048155;28;20629;-78
2022/05/02 09:34:57;;;;;;;4.93;2.90;;;;;;;17.84;23.38;99442.84;5028489;28;20041;-77
2022/05/02 09:37:29;;;;;;;5.85;2.80;;;;;;;17.63;23.89;99459.31;5052583;28;20572;-78
2022/05/02 09:40:04;;;;;;;4.22;2.65;;;;;;;17.52;24.46;99463.19;5053971;28;20496;-78
2022/05/02 09:43:07;;;;;;;5.20;3.00;;;;;;;17.49;24.70;99457.19;5052712;28;20048;-78
2022/05/02 09:49:33;;;;;;;6.00;3.33;;;;;;;17.57;24.32;99434.16;5052871;28;20130;-77
2022/05/02 09:52:11;;;;;;;5.50;3.10;;;;;;;17.48;24.96;99434.50;5005105;28;20088;-76
2022/05/02 09:57:36;;;;;;;4.63;3.22;;;;;;;17.66;24.80;99397.13;5028156;28;20050;-78
2022/05/02 10:02:59;;;;;;;5.10;3.40;;;;;;;17.87;24.73;99413.88;5047477;28;20048;-77
2022/05/02 10:05:26;;;;;;;6.28;3.38;;;;;;;18.33;23.79;99419.09;5013179;28;20064;-79
2022/05/02 10:07:59;;;;;;;7.20;3.15;;;;;;;18.59;23.20;99411.00;5019791;28;20052;-78
2022/05/02 10:10:51;;;;;;;5.72;3.60;;;;;;;19.04;23.41;99425.81;5028859;28;20042;-78
2022/05/02 10:13:44;;;;;;;5.53;3.85;;;;;;;19.80;22.16;99419.84;5075888;28;20135;-79
2022/05/02 10:16:37;;;;;;;4.72;3.08;;;;;;;20.71;20.96;99400.63;5053594;28;20119;-76
2022/05/02 10:19:24;;;;;;;7.03;3.80;;;;;;;21.07;20.47;99404.94;5035689;28;20469;-78
2022/05/02 10:22:23;;;;;;;5.95;3.55;;;;;;;21.06;20.52;99397.97;5038743;28;20407;-77
2022/05/02 10:25:13;;;;;;;5.20;2.75;;;;;;;21.72;20.57;99397.19;5052295;28;20503;-78
2022/05/02 10:28:10;;;;;;;3.78;2.67;;;;;;;22.13;20.34;99391.44;5038155;28;20033;-78
2022/05/02 10:30:49;;;;;;;5.55;2.60;;;;;;;21.77;20.32;99395.16;5051675;28;20045;-77
2022/05/02 10:33:18;;;;;;;3.97;2.60;;;;;;;21.14;20.45;99393.16;5053378;28;20059;-76
2022/05/02 10:35:48;;;;;;;5.60;2.67;;;;;;;20.39;21.39;99390.75;5035565;28;20040;-76
2022/05/02 10:38:28;;;;;;;4.72;2.55;;;;;;;20.30;21.81;99387.66;5029364;28;20038;-77
2022/05/02 10:41:02;;;;;;;5.25;2.35;;;;;;;20.87;21.60;99373.47;5034383;28;20044;-77
2022/05/02 10:43:28;;;;;;;4.90;2.47;;;;;;;21.51;20.94;99378.91;5012022;28;20049;-77
2022/05/02 10:45:53;;;;;;;4.07;2.20;;;;;;;21.75;20.58;99375.88;5067447;28;20033;-78
2022/05/02 10:48:19;;;;;;;3.85;2.67;;;;;;;21.74;20.68;99379.47;5035279;28;20516;-77
2022/05/02 10:51:05;;;;;;;4.22;2.55;;;;;;;21.60;20.51;99371.44;5054216;28;20438;-78
2022/05/02 10:53:59;;;;;;;3.72;2.33;;;;;;;21.35;20.34;99366.59;5056107;28;20505;-77
2022/05/02 10:56:41;;;;;;;6.43;2.58;;;;;;;21.38;20.50;99359.38;5051006;28;20047;-78
2022/05/02 10:59:08;;;;;;;5.50;2.90;;;;;;;21.10;20.97;99346.78;5051155;28;20121;-78
2022/05/02 11:01:42;;;;;;;4.53;2.40;;;;;;;20.79;21.49;99352.78;5025822;28;20125;-78
2022/05/02 11:04:38;;;;;;;3.72;2.83;;;;;;;20.47;21.66;99354.34;5055844;28;20392;-78
2022/05/02 11:07:25;;;;;;;9.02;2.83;;;;;;;20.03;21.89;99367.91;5055257;28;20126;-77
2022/05/02 11:10:05;;;;;;;5.60;2.85;;;;;;;19.54;22.25;99339.44;5054951;28;20048;-79
2022/05/02 11:12:47;;;;;;;4.22;2.80;;;;;;;19.10;22.74;99333.53;5048992;28;20041;-78
2022/05/02 11:15:25;;;;;;;5.78;2.80;;;;;;;18.95;23.25;99342.94;5036520;28;20084;-78
2022/05/02 11:18:07;;;;;;;6.05;2.97;;;;;;;18.92;23.45;99329.06;5009464;28;20033;-77
2022/05/02 11:20:51;;;;;;;7.85;2.85;;;;;;;19.24;23.40;99322.41;5055983;28;20203;-76
2022/05/02 11:23:45;;;;;;;3.35;2.42;;;;;;;20.12;22.82;99316.59;5038272;28;20041;-76
2022/05/02 11:26:33;;;;;;;7.82;3.50;;;;;;;20.87;21.87;99312.84;5054913;28;20048;-77
2022/05/02 11:29:17;;;;;;;7.43;2.97;;;;;;;21.78;20.79;99321.13;5038979;28;20044;-76
2022/05/02 11:32:02;;;;;;;5.03;2.65;;;;;;;22.29;20.12;99329.72;5055979;28;20127;-77
2022/05/02 11:34:39;;;;;;;5.38;2.97;;;;;;;22.42;19.65;99314.00;5054689;28;20104;-76
2022/05/02 11:37:06;;;;;;;5.10;3.20;;;;;;;22.07;19.96;99303.63;5054438;28;20040;-77
2022/05/02 11:39:50;;;;;;;4.10;2.92;;;;;;;21.83;20.15;99300.59;5048591;28;20060;-77
2022/05/02 11:42:18;;;;;;;4.22;2.90;;;;;;;21.18;20.91;99297.13;5039699;28;20049;-78
2022/05/02 11:45:10;;;;;;;4.50;2.70;;;;;;;20.81;21.53;99283.22;5055448;28;20071;-79
2022/05/02 11:47:54;;;;;;;3.78;2.40;;;;;;;20.38;21.97;99295.06;5054182;28;20045;-77
2022/05/02 11:50:27;;;;;;;4.50;2.63;;;;;;;19.90;22.48;99279.91;5056022;28;20430;-76
2022/05/02 11:52:57;;;;;;;5.07;3.10;;;;;;;19.60;23.15;99283.06;5055733;28;20044;-77
2022/05/02 11:55:31;;;;;;;3.13;2.33;;;;;;;19.72;23.08;99290.38;5054496;28;20068;-78
2022/05/02 11:58:18;;;;;;;7.35;2.58;;;;;;;20.12;22.58;99283.22;5024311;28;20040;-76
2022/05/02 12:00:44;;;;;;;4.80;2.70;;;;;;;20.73;22.06;99274.88;5053988;28;20041;-78
2022/05/02 12:03:14;;;;;;;4.47;2.75;;;;;;;20.85;21.82;99283.06;5037784;28;20056;-77
2022/05/02 12:05:42;;;;;;;3.53;2.50;;;;;;;20.87;21.81;99265.38;5056243;28;20074;-78
2022/05/02 12:08:31;;;;;;;5.75;2.92;;;;;;;20.53;22.06;99262.72;5055527;28;20052;-77
2022/05/02 12:11:04;;;;;;;5.57;2.70;;;;;;;20.11;22.29;99252.50;5048246;28;20128;-77
2022/05/02 12:13:35;;;;;;;5.45;2.00;;;;;;;19.64;22.65;99245.16;5037722;28;20059;-76
2022/05/02 12:16:14;;;;;;;4.10;2.10;;;;;;;19.35;23.31;99243.88;5037772;28;20052;-80
2022/05/02 12:18:45;;;;;;;4.93;2.00;;;;;;;19.39;23.24;99257.75;5031533;28;20551;-78
2022/05/02 12:21:33;;;;;;;4.07;2.10;;;;;;;19.07;23.24;99253.97;5047094;28;20045;-78
2022/05/02 12:23:59;;;;;;;3.85;2.40;;;;;;;18.71;23.80;99237.13;5030421;28;20049;-79
2022/05/02 12:26:25;;;;;;;5.13;2.72;;;;;;;18.57;24.06;99249.13;5003994;28;20037;-79
2022/05/02 12:28:58;;;;;;;5.22;2.42;;;;;;;18.31;24.45;99235.34;5014549;28;20048;-79
2022/05/02 12:31:26;;;;;;;3.85;2.08;;;;;;;18.16;24.69;99243.88;5030710;28;20048;-78
2022/05/02 12:34:10;;;;;;;5.72;2.83;;;;;;;17.93;25.03;99264.03;4997918;28;20488;-78
2022/05/02 12:36:45;;;;;;;4.80;2.08;;;;;;;17.77;25.12;99266.41;5030619;28;20095;-77
2022/05/02 12:39:24;;;;;;;5.27;2.30;;;;;;;17.74;25.32;99290.16;5030532;28;20064;-78
2022/05/02 12:41:53;;;;;;;4.15;2.60;;;;;;;17.30;25.57;99246.41;5031435;28;20046;-77